Time;durP1;ratioP1;P1;durP2;ratioP2;P2;SDS_P1;SDS_P2;PMS_P1;PMS_P2;Temp;Humidity;BMP_temperature;BMP_pressure;BME280_temperature;BME280_humidity;BME280_pressure;Samples;Min_cycle;Max_cycle;Signal;HPM_P1;HPM_P2
2022/09/28 00:00:49;;;;;;;;;;;;;;;;;;5054826;28;20010;-27
2022/09/28 00:03:15;;;;;;;;;;;;;;;;;;5054829;28;19925;-29
2022/09/28 00:05:41;;;;;;;;;;;;;;;;;;5054639;28;20347;-24
2022/09/28 00:08:07;;;;;;;;;;;;;;;;;;5054783;28;19924;-27
2022/09/28 00:10:33;;;;;;;;;;;;;;;;;;5054687;28;19912;-28
2022/09/28 00:13:00;;;;;;;;;;;;;;;;;;5054713;28;20352;-25
2022/09/28 00:15:26;;;;;;;;;;;;;;;;;;5054930;28;19913;-26
2022/09/28 00:17:52;;;;;;;;;;;;;;;;;;5055386;28;20308;-28
2022/09/28 00:20:18;;;;;;;;;;;;;;;;;;5054588;28;19920;-27
2022/09/28 00:22:44;;;;;;;;;;;;;;;;;;5054444;28;19909;-25
2022/09/28 00:25:10;;;;;;;;;;;;;;;;;;5054241;28;19920;-25
2022/09/28 00:27:36;;;;;;;;;;;;;;;;;;5054522;28;19935;-26
2022/09/28 00:30:03;;;;;;;;;;;;;;;;;;5054464;28;20344;-25
2022/09/28 00:32:29;;;;;;;;;;;;;;;;;;5054364;28;19912;-24
2022/09/28 00:34:55;;;;;;;;;;;;;;;;;;5054657;28;20237;-26
2022/09/28 00:37:21;;;;;;;;;;;;;;;;;;5054387;28;20011;-30
2022/09/28 00:39:47;;;;;;;;;;;;;;;;;;5054361;28;20360;-26
2022/09/28 00:42:13;;;;;;;;;;;;;;;;;;5054290;28;19920;-23
2022/09/28 00:44:39;;;;;;;;;;;;;;;;;;5036796;28;19913;-26
2022/09/28 00:47:05;;;;;;;;;;;;;;;;;;5054855;28;19919;-24
2022/09/28 00:49:31;;;;;;;;;;;;;;;;;;5054367;28;20320;-30
2022/09/28 00:51:57;;;;;;;;;;;;;;;;;;5054445;28;19916;-28
2022/09/28 00:54:23;;;;;;;;;;;;;;;;;;5055126;28;19919;-26
2022/09/28 00:56:49;;;;;;;;;;;;;;;;;;5054310;28;19908;-29
2022/09/28 00:59:15;;;;;;;;;;;;;;;;;;5054239;28;20414;-23
2022/09/28 01:01:41;;;;;;;;;;;;;;;;;;5036681;28;19909;-26
2022/09/28 01:04:07;;;;;;;;;;;;;;;;;;5054180;28;19939;-28
2022/09/28 01:06:33;;;;;;;;;;;;;;;;;;5054125;28;19909;-29
2022/09/28 01:08:59;;;;;;;;;;;;;;;;;;5054182;28;19995;-27
2022/09/28 01:11:25;;;;;;;;;;;;;;;;;;5054330;28;20038;-25
2022/09/28 01:13:51;;;;;;;;;;;;;;;;;;5054290;28;20312;-25
2022/09/28 01:16:17;;;;;;;;;;;;;;;;;;5054010;28;19909;-24
2022/09/28 01:18:43;;;;;;;;;;;;;;;;;;5054059;28;19919;-24
2022/09/28 01:21:09;;;;;;;;;;;;;;;;;;5054086;28;19909;-28
2022/09/28 01:23:35;;;;;;;;;;;;;;;;;;5053957;28;19917;-23
2022/09/28 01:26:01;;;;;;;;;;;;;;;;;;5054301;28;19970;-24
2022/09/28 01:28:27;;;;;;;;;;;;;;;;;;5054235;28;20021;-26
2022/09/28 01:30:53;;;;;;;;;;;;;;;;;;5054212;28;19913;-27
2022/09/28 01:33:19;;;;;;;;;;;;;;;;;;5054098;28;19912;-27
2022/09/28 01:35:45;;;;;;;;;;;;;;;;;;5053990;28;20359;-27
2022/09/28 01:38:11;;;;;;;;;;;;;;;;;;5055947;28;19919;-24
2022/09/28 01:40:37;;;;;;;;;;;;;;;;;;5057474;28;19915;-24
2022/09/28 01:43:03;;;;;;;;;;;;;;;;;;5057544;28;20007;-30
2022/09/28 01:45:30;;;;;;;;;;;;;;;;;;5057340;28;19913;-24
2022/09/28 01:47:56;;;;;;;;;;;;;;;;;;5057318;28;19917;-23
2022/09/28 01:50:22;;;;;;;;;;;;;;;;;;5057265;28;20330;-26
2022/09/28 01:52:48;;;;;;;;;;;;;;;;;;5056994;28;19921;-28
2022/09/28 01:55:14;;;;;;;;;;;;;;;;;;5057250;28;19909;-23
2022/09/28 01:57:40;;;;;;;;;;;;;;;;;;5057254;28;19952;-28
2022/09/28 02:00:06;;;;;;;;;;;;;;;;;;5039543;28;19928;-25
2022/09/28 02:02:32;;;;;;;;;;;;;;;;;;5057015;28;20007;-26
2022/09/28 02:04:58;;;;;;;;;;;;;;;;;;5056867;28;19950;-26
2022/09/28 02:07:24;;;;;;;;;;;;;;;;;;5057059;28;20011;-29
2022/09/28 02:09:50;;;;;;;;;;;;;;;;;;5057280;28;19928;-27
2022/09/28 02:12:16;;;;;;;;;;;;;;;;;;5057592;28;19917;-24
2022/09/28 02:14:42;;;;;;;;;;;;;;;;;;5056882;28;20026;-23
2022/09/28 02:17:08;;;;;;;;;;;;;;;;;;5057099;28;20005;-28
2022/09/28 02:19:34;;;;;;;;;;;;;;;;;;5056761;28;19920;-24
2022/09/28 02:22:00;;;;;;;;;;;;;;;;;;5056652;28;19939;-24
2022/09/28 02:24:25;;;;;;;;;;;;;;;;;;5056660;28;19917;-26
2022/09/28 02:26:51;;;;;;;;;;;;;;;;;;5056677;28;19995;-26
2022/09/28 02:29:17;;;;;;;;;;;;;;;;;;5039042;28;19913;-23
2022/09/28 02:31:43;;;;;;;;;;;;;;;;;;5056713;28;20004;-24
2022/09/28 02:34:09;;;;;;;;;;;;;;;;;;5056379;28;20298;-26
2022/09/28 02:36:35;;;;;;;;;;;;;;;;;;5056473;28;19967;-29
2022/09/28 02:39:01;;;;;;;;;;;;;;;;;;5056485;28;20298;-28
2022/09/28 02:41:27;;;;;;;;;;;;;;;;;;5056428;28;19913;-27
2022/09/28 02:43:53;;;;;;;;;;;;;;;;;;5056363;28;19920;-28
2022/09/28 02:46:19;;;;;;;;;;;;;;;;;;5056648;28;19912;-31
2022/09/28 02:48:45;;;;;;;;;;;;;;;;;;5056035;28;19912;-24
2022/09/28 02:51:11;;;;;;;;;;;;;;;;;;5056074;28;20007;-30
2022/09/28 02:53:37;;;;;;;;;;;;;;;;;;5056090;28;19908;-24
2022/09/28 02:56:03;;;;;;;;;;;;;;;;;;5056106;28;19913;-25
2022/09/28 02:58:29;;;;;;;;;;;;;;;;;;5056278;28;20239;-23
2022/09/28 03:00:55;;;;;;;;;;;;;;;;;;5056051;28;20336;-26
2022/09/28 03:03:21;;;;;;;;;;;;;;;;;;5055905;28;19913;-30
2022/09/28 03:05:47;;;;;;;;;;;;;;;;;;5055746;28;20221;-27
2022/09/28 03:08:13;;;;;;;;;;;;;;;;;;5056111;28;19915;-26
2022/09/28 03:10:39;;;;;;;;;;;;;;;;;;5055846;28;19919;-23
2022/09/28 03:13:05;;;;;;;;;;;;;;;;;;5038019;28;19970;-25
2022/09/28 03:15:31;;;;;;;;;;;;;;;;;;5055734;28;19916;-26
2022/09/28 03:17:57;;;;;;;;;;;;;;;;;;5055701;28;19913;-27
2022/09/28 03:20:23;;;;;;;;;;;;;;;;;;5056440;28;19932;-27
2022/09/28 03:22:49;;;;;;;;;;;;;;;;;;5055614;28;19917;-29
2022/09/28 03:25:15;;;;;;;;;;;;;;;;;;5055519;28;19931;-27
2022/09/28 03:27:41;;;;;;;;;;;;;;;;;;5055463;28;20359;-28
2022/09/28 03:30:07;;;;;;;;;;;;;;;;;;5055499;28;20003;-30
2022/09/28 03:32:33;;;;;;;;;;;;;;;;;;5055338;28;19917;-25
2022/09/28 03:34:59;;;;;;;;;;;;;;;;;;5055362;28;19936;-23
2022/09/28 03:37:25;;;;;;;;;;;;;;;;;;5055321;28;19919;-25
2022/09/28 03:39:51;;;;;;;;;;;;;;;;;;5055462;28;19913;-27
2022/09/28 03:42:17;;;;;;;;;;;;;;;;;;5054985;28;20019;-28
2022/09/28 03:44:43;;;;;;;;;;;;;;;;;;5055014;28;20037;-27
2022/09/28 03:47:09;;;;;;;;;;;;;;;;;;5054903;28;20256;-25
2022/09/28 03:49:35;;;;;;;;;;;;;;;;;;5055016;28;19923;-30
2022/09/28 03:52:01;;;;;;;;;;;;;;;;;;5054649;28;19920;-26
2022/09/28 03:54:28;;;;;;;;;;;;;;;;;;5055093;28;19920;-30
2022/09/28 03:56:53;;;;;;;;;;;;;;;;;;5037291;28;20264;-25
2022/09/28 03:59:19;;;;;;;;;;;;;;;;;;5054842;28;19908;-26
2022/09/28 04:01:45;;;;;;;;;;;;;;;;;;5054099;28;19913;-26
2022/09/28 04:04:11;;;;;;;;;;;;;;;;;;5054668;28;19913;-24
2022/09/28 04:06:37;;;;;;;;;;;;;;;;;;5055047;28;19909;-25
2022/09/28 04:09:03;;;;;;;;;;;;;;;;;;5054415;28;19970;-27
2022/09/28 04:11:29;;;;;;;;;;;;;;;;;;5054169;28;19921;-27
2022/09/28 04:13:55;;;;;;;;;;;;;;;;;;5036674;28;20369;-28
2022/09/28 04:16:21;;;;;;;;;;;;;;;;;;5054235;28;19912;-28
2022/09/28 04:18:47;;;;;;;;;;;;;;;;;;5054528;28;19912;-25
2022/09/28 04:21:14;;;;;;;;;;;;;;;;;;5054500;28;19913;-25
2022/09/28 04:23:40;;;;;;;;;;;;;;;;;;5054247;28;20374;-25
2022/09/28 04:26:06;;;;;;;;;;;;;;;;;;5036594;28;19920;-28
2022/09/28 04:31:16;;;;;;;;;;;;;;;;;;5054328;28;20307;-27
2022/09/28 04:33:42;;;;;;;;;;;;;;;;;;5054048;28;19913;-25
2022/09/28 04:36:09;;;;;;;;;;;;;;;;;;5054141;28;19923;-29
2022/09/28 04:38:35;;;;;;;;;;;;;;;;;;5053996;28;20419;-28
2022/09/28 04:41:01;;;;;;;;;;;;;;;;;;5054103;28;20039;-27
2022/09/28 04:43:28;;;;;;;;;;;;;;;;;;5053544;28;19924;-25
2022/09/28 04:45:54;;;;;;;;;;;;;;;;;;5053953;28;19912;-29
2022/09/28 04:48:19;;;;;;;;;;;;;;;;;;5054383;28;19988;-28
2022/09/28 04:50:45;;;;;;;;;;;;;;;;;;5053711;28;20078;-32
2022/09/28 04:53:11;;;;;;;;;;;;;;;;;;5053523;28;19974;-27
2022/09/28 04:55:38;;;;;;;;;;;;;;;;;;5036091;28;19999;-26
2022/09/28 04:58:04;;;;;;;;;;;;;;;;;;5054273;28;19912;-24
2022/09/28 05:00:33;;;;;;;;;;;;;;;;;;5054027;28;19913;-25
2022/09/28 05:02:59;;;;;;;;;;;;;;;;;;5053774;28;19979;-25
2022/09/28 05:05:25;;;;;;;;;;;;;;;;;;5053959;28;19920;-24
2022/09/28 05:07:51;;;;;;;;;;;;;;;;;;5054142;28;19919;-27
2022/09/28 05:10:18;;;;;;;;;;;;;;;;;;5053886;28;20012;-29
2022/09/28 05:12:44;;;;;;;;;;;;;;;;;;5056611;28;20347;-25
2022/09/28 05:15:10;;;;;;;;;;;;;;;;;;5057911;28;19917;-25
2022/09/28 05:17:36;;;;;;;;;;;;;;;;;;5057754;28;19908;-25
2022/09/28 05:20:03;;;;;;;;;;;;;;;;;;5057277;28;20301;-29
2022/09/28 05:22:29;;;;;;;;;;;;;;;;;;5057141;28;19919;-28
2022/09/28 05:24:57;;;;;;;;;;;;;;;;;;5057131;28;20262;-30
2022/09/28 05:27:23;;;;;;;;;;;;;;;;;;5056884;28;19925;-28
2022/09/28 05:29:49;;;;;;;;;;;;;;;;;;5056999;28;19920;-27
2022/09/28 05:32:15;;;;;;;;;;;;;;;;;;5057017;28;20386;-30
2022/09/28 05:34:41;;;;;;;;;;;;;;;;;;5056906;28;19909;-27
2022/09/28 05:37:07;;;;;;;;;;;;;;;;;;5056945;28;19920;-28
2022/09/28 05:39:33;;;;;;;;;;;;;;;;;;5056983;28;19974;-26
2022/09/28 05:41:59;;;;;;;;;;;;;;;;;;5056743;28;19975;-24
2022/09/28 05:44:25;;;;;;;;;;;;;;;;;;5056609;28;19927;-25
2022/09/28 05:46:51;;;;;;;;;;;;;;;;;;5056380;28;19913;-26
2022/09/28 05:49:17;;;;;;;;;;;;;;;;;;5056610;28;19909;-24
2022/09/28 05:51:43;;;;;;;;;;;;;;;;;;5056666;28;20015;-26
2022/09/28 05:54:09;;;;;;;;;;;;;;;;;;5056459;28;19919;-25
2022/09/28 05:56:35;;;;;;;;;;;;;;;;;;5056266;28;19923;-31
2022/09/28 05:59:04;;;;;;;;;;;;;;;;;;5056543;28;19913;-25
2022/09/28 06:01:30;;;;;;;;;;;;;;;;;;5038872;28;19946;-27
2022/09/28 06:03:56;;;;;;;;;;;;;;;;;;5056233;28;19913;-27
2022/09/28 06:06:21;;;;;;;;;;;;;;;;;;5056943;28;19917;-27
2022/09/28 06:08:48;;;;;;;;;;;;;;;;;;5039063;28;20000;-28
2022/09/28 06:11:14;;;;;;;;;;;;;;;;;;5057011;28;19940;-23
2022/09/28 06:13:40;;;;;;;;;;;;;;;;;;5056326;28;19913;-25
2022/09/28 06:16:06;;;;;;;;;;;;;;;;;;5055754;28;19986;-28
2022/09/28 06:18:32;;;;;;;;;;;;;;;;;;5037727;28;19989;-32
2022/09/28 06:20:58;;;;;;;;;;;;;;;;;;5055392;28;19924;-28
2022/09/28 06:23:24;;;;;;;;;;;;;;;;;;5054613;28;19913;-28
2022/09/28 06:25:50;;;;;;;;;;;;;;;;;;5055530;28;19912;-27
2022/09/28 06:28:16;;;;;;;;;;;;;;;;;;5055480;28;19981;-32
2022/09/28 06:30:42;;;;;;;;;;;;;;;;;;5055407;28;20011;-25
2022/09/28 06:33:08;;;;;;;;;;;;;;;;;;5055025;28;20397;-28
2022/09/28 06:35:34;;;;;;;;;;;;;;;;;;5055346;28;19912;-27
2022/09/28 06:38:00;;;;;;;;;;;;;;;;;;5055717;28;19908;-24
2022/09/28 06:40:26;;;;;;;;;;;;;;;;;;5056434;28;19912;-29
2022/09/28 06:42:52;;;;;;;;;;;;;;;;;;5056132;28;20344;-28
2022/09/28 06:45:24;;;;;;;;;;;;;;;;;;5038373;28;19967;-28
2022/09/28 06:47:50;;;;;;;;;;;;;;;;;;5056455;28;19927;-30
2022/09/28 06:50:20;;;;;;;;;;;;;;;;;;5057657;28;19912;-26
2022/09/28 07:12:20;;;;;;;;;;;;;;;;;;5117916;28;20019;-25
2022/09/28 07:14:48;;;;;;;;;;;;;;;;;;5100779;28;20291;-24
2022/09/28 07:17:15;;;;;;;;;;;;;;;;;;5118858;28;19911;-25
2022/09/28 07:19:51;;;;;;;;;;;;;;;;;;5118964;28;19907;-25
2022/09/28 07:22:32;;;;;;;;;;;;;;;;;;5118649;28;20021;-24
2022/09/28 07:25:11;;;;;;;;;;;;;;;;;;5100100;28;20373;-25
2022/09/28 07:27:38;;;;;;;;;;;;;;;;;;5116158;28;20379;-25
2022/09/28 07:30:04;;;;;;;;;;;;;;;;;;5115799;28;19915;-24
2022/09/28 07:32:33;;;;;;;;;;;;;;;;;;5116073;28;19916;-25
2022/09/28 07:35:00;;;;;;;;;;;;;;;;;;5114793;28;19965;-24
2022/09/28 07:37:26;;;;;;;;;;;;;;;;;;5115682;28;20260;-24
2022/09/28 07:42:37;;;;;;;;;;;;;;;;;;5115731;28;19993;-24
2022/09/28 07:45:03;;;;;;;;;;;;;;;;;;5115733;28;19911;-25
2022/09/28 07:47:29;;;;;;;;;;;;;;;;;;5115295;28;19919;-24
2022/09/28 07:49:58;;;;;;;;;;;;;;;;;;5097300;28;19918;-25
2022/09/28 07:52:25;;;;;;;;;;;;;;;;;;5115415;28;19919;-25
2022/09/28 07:54:52;;;;;;;;;;;;;;;;;;5115599;28;19908;-24
2022/09/28 07:57:18;;;;;;;;;;;;;;;;;;5115122;28;20014;-25
2022/09/28 07:59:44;;;;;;;;;;;;;;;;;;5097304;28;19943;-24
2022/09/28 08:02:10;;;;;;;;;;;;;;;;;;5115685;28;19992;-24
2022/09/28 08:04:36;;;;;;;;;;;;;;;;;;5115139;28;20276;-24
2022/09/28 08:07:02;;;;;;;;;;;;;;;;;;5096870;28;19946;-25
2022/09/28 08:09:28;;;;;;;;;;;;;;;;;;5096657;28;20372;-24
2022/09/28 08:11:54;;;;;;;;;;;;;;;;;;5115260;28;20311;-23
2022/09/28 08:14:20;;;;;;;;;;;;;;;;;;5114844;28;20018;-23
2022/09/28 08:16:46;;;;;;;;;;;;;;;;;;5115151;28;19940;-23
2022/09/28 08:19:12;;;;;;;;;;;;;;;;;;5096735;28;19922;-23
2022/09/28 08:21:44;;;;;;;;;;;;;;;;;;5114654;28;19911;-24
2022/09/28 08:24:10;;;;;;;;;;;;;;;;;;5096664;28;19931;-24
2022/09/28 08:26:36;;;;;;;;;;;;;;;;;;5114670;28;19911;-24
2022/09/28 08:29:02;;;;;;;;;;;;;;;;;;5114656;28;19922;-23
2022/09/28 08:31:28;;;;;;;;;;;;;;;;;;5114768;28;20254;-24
2022/09/28 08:33:54;;;;;;;;;;;;;;;;;;5115018;28;19934;-23
2022/09/28 08:36:20;;;;;;;;;;;;;;;;;;5115139;28;20338;-24
2022/09/28 08:38:46;;;;;;;;;;;;;;;;;;5096470;28;19908;-23
2022/09/28 08:41:13;;;;;;;;;;;;;;;;;;5114878;28;20392;-24
2022/09/28 08:43:39;;;;;;;;;;;;;;;;;;5096162;28;19912;-23
2022/09/28 08:46:05;;;;;;;;;;;;;;;;;;5113956;28;19958;-24
2022/09/28 08:48:43;;;;;;;;;;;;;;;;;;5117631;28;19931;-24
2022/09/28 08:51:09;;;;;;;;;;;;;;;;;;5117902;28;19912;-24
2022/09/28 08:53:35;;;;;;;;;;;;;;;;;;5117686;28;20006;-23
2022/09/28 08:56:01;;;;;;;;;;;;;;;;;;5117978;28;19973;-23
2022/09/28 08:58:27;;;;;;;;;;;;;;;;;;5117410;28;19974;-24
2022/09/28 09:00:53;;;;;;;;;;;;;;;;;;5117601;28;19908;-23
2022/09/28 09:03:19;;;;;;;;;;;;;;;;;;5117580;28;19943;-24
2022/09/28 09:05:45;;;;;;;;;;;;;;;;;;5117531;28;19908;-24
2022/09/28 09:08:11;;;;;;;;;;;;;;;;;;5117185;28;19920;-23
2022/09/28 09:10:37;;;;;;;;;;;;;;;;;;5117614;28;19912;-23
2022/09/28 09:13:03;;;;;;;;;;;;;;;;;;5117239;28;19912;-31
2022/09/28 09:15:29;;;;;;;;;;;;;;;;;;5117244;28;20254;-23
2022/09/28 09:17:55;;;;;;;;;;;;;;;;;;5117292;28;19919;-24
2022/09/28 09:20:21;;;;;;;;;;;;;;;;;;5099290;28;19926;-25
2022/09/28 09:22:47;;;;;;;;;;;;;;;;;;5117422;28;19919;-24
2022/09/28 09:25:15;;;;;;;;;;;;;;;;;;5117717;28;19919;-25
2022/09/28 09:27:41;;;;;;;;;;;;;;;;;;5117619;28;19911;-25
2022/09/28 09:30:07;;;;;;;;;;;;;;;;;;5117994;28;19965;-24
2022/09/28 09:32:33;;;;;;;;;;;;;;;;;;5099725;28;20025;-24
2022/09/28 09:34:59;;;;;;;;;;;;;;;;;;5118290;28;19908;-24
2022/09/28 09:37:33;;;;;;;;;;;;;;;;;;5117692;28;19972;-25
2022/09/28 09:40:10;;;;;;;;;;;;;;;;;;5121490;28;19908;-25
2022/09/28 09:42:38;;;;;;;;;;;;;;;;;;5122724;28;19912;-25
2022/09/28 09:56:33;;;;;;;;;;;;;;;;;;5123118;28;19969;-23
2022/09/28 09:59:00;;;;;;;;;;;;;;;;;;5120132;28;19912;-23
2022/09/28 10:01:33;;;;;;;;;;;;;;;;;;5103345;28;20340;-23
2022/09/28 10:04:01;;;;;;;;;;;;;;;;;;5101975;28;20246;-23
2022/09/28 10:15:09;;;;;;;;;;;;;;;;;;5122577;28;20299;-23
2022/09/28 10:17:38;;;;;;;;;;;;;;;;;;5120617;28;19923;-23
2022/09/28 10:20:09;;;;;;;;;;;;;;;;;;5121453;28;19920;-23
2022/09/28 10:25:34;;;;;;;;;;;;;;;;;;5121838;28;19966;-24
2022/09/28 10:28:16;;;;;;;;;;;;;;;;;;5120477;28;19912;-23
2022/09/28 10:30:45;;;;;;;;;;;;;;;;;;5121313;28;20280;-23
2022/09/28 10:33:15;;;;;;;;;;;;;;;;;;5120344;28;19931;-24
2022/09/28 10:36:01;;;;;;;;;;;;;;;;;;5120055;28;19912;-23
2022/09/28 10:38:31;;;;;;;;;;;;;;;;;;5120146;28;19908;-23
2022/09/28 10:41:08;;;;;;;;;;;;;;;;;;5120813;28;20346;-23
2022/09/28 10:43:41;;;;;;;;;;;;;;;;;;5115604;28;19926;-23
2022/09/28 10:46:08;;;;;;;;;;;;;;;;;;5120704;28;20377;-24
2022/09/28 10:48:39;;;;;;;;;;;;;;;;;;5105162;28;19925;-23
2022/09/28 10:51:11;;;;;;;;;;;;;;;;;;5120894;28;19911;-23
2022/09/28 10:53:39;;;;;;;;;;;;;;;;;;5102267;28;19965;-23
2022/09/28 10:56:07;;;;;;;;;;;;;;;;;;5119011;28;19915;-23
2022/09/28 10:58:35;;;;;;;;;;;;;;;;;;5120557;28;20257;-24
2022/09/28 11:01:08;;;;;;;;;;;;;;;;;;5118023;28;19961;-24
2022/09/28 11:03:34;;;;;;;;;;;;;;;;;;5114955;28;19919;-23
2022/09/28 11:06:01;;;;;;;;;;;;;;;;;;5115278;28;19958;-23
2022/09/28 11:08:27;;;;;;;;;;;;;;;;;;5114764;28;20011;-24
2022/09/28 11:10:53;;;;;;;;;;;;;;;;;;5114755;28;19916;-24
2022/09/28 11:13:22;;;;;;;;;;;;;;;;;;5114179;28;20452;-23
2022/09/28 11:15:49;;;;;;;;;;;;;;;;;;5114844;28;19912;-23
2022/09/28 11:18:15;;;;;;;;;;;;;;;;;;5114850;28;19945;-24
2022/09/28 11:20:41;;;;;;;;;;;;;;;;;;5114792;28;19919;-23
2022/09/28 11:23:07;;;;;;;;;;;;;;;;;;5115531;28;19912;-23
2022/09/28 11:25:33;;;;;;;;;;;;;;;;;;5115723;28;19911;-23
2022/09/28 11:27:59;;;;;;;;;;;;;;;;;;5115798;28;19962;-24
2022/09/28 11:33:18;;;;;;;;;;;;;;;;;;5115801;28;19945;-24
2022/09/28 11:35:44;;;;;;;;;;;;;;;;;;5115591;28;19965;-23
2022/09/28 11:38:10;;;;;;;;;;;;;;;;;;5115701;28;19912;-23
2022/09/28 11:40:36;;;;;;;;;;;;;;;;;;5115572;28;19965;-24
2022/09/28 11:43:02;;;;;;;;;;;;;;;;;;5115350;28;19926;-24
2022/09/28 11:45:28;;;;;;;;;;;;;;;;;;5115210;28;19907;-24
2022/09/28 11:47:55;;;;;;;;;;;;;;;;;;5115118;28;20237;-23
2022/09/28 11:50:21;;;;;;;;;;;;;;;;;;5115426;28;19912;-23
2022/09/28 11:52:47;;;;;;;;;;;;;;;;;;5115267;28;19912;-24
2022/09/28 11:55:13;;;;;;;;;;;;;;;;;;5115136;28;19912;-24
2022/09/28 11:57:39;;;;;;;;;;;;;;;;;;5114916;28;19908;-23
2022/09/28 12:00:09;;;;;;;;;;;;;;;;;;5115225;28;19908;-23
2022/09/28 12:02:35;;;;;;;;;;;;;;;;;;5098035;28;19912;-24
2022/09/28 12:05:01;;;;;;;;;;;;;;;;;;5097098;28;19951;-24
2022/09/28 12:07:27;;;;;;;;;;;;;;;;;;5114814;28;20230;-23
2022/09/28 12:09:53;;;;;;;;;;;;;;;;;;5114963;28;19965;-24
2022/09/28 12:12:19;;;;;;;;;;;;;;;;;;5115093;28;19915;-23
2022/09/28 12:14:45;;;;;;;;;;;;;;;;;;5115186;28;19918;-23
2022/09/28 12:17:11;;;;;;;;;;;;;;;;;;5114749;28;20007;-24
2022/09/28 12:19:37;;;;;;;;;;;;;;;;;;5115003;28;19907;-24
2022/09/28 12:22:03;;;;;;;;;;;;;;;;;;5114482;28;19998;-24
2022/09/28 12:24:29;;;;;;;;;;;;;;;;;;5097362;28;20323;-24
2022/09/28 12:26:56;;;;;;;;;;;;;;;;;;5114745;28;19946;-25
2022/09/28 12:29:22;;;;;;;;;;;;;;;;;;5114875;28;19912;-25
2022/09/28 12:31:48;;;;;;;;;;;;;;;;;;5114587;28;20235;-22
2022/09/28 12:34:15;;;;;;;;;;;;;;;;;;5114861;28;19916;-23
2022/09/28 12:36:41;;;;;;;;;;;;;;;;;;5114757;28;20341;-23
2022/09/28 12:39:07;;;;;;;;;;;;;;;;;;5114769;28;19996;-23
2022/09/28 12:41:33;;;;;;;;;;;;;;;;;;5114907;28;20270;-23
2022/09/28 12:44:01;;;;;;;;;;;;;;;;;;5114708;28;19912;-23
2022/09/28 12:46:27;;;;;;;;;;;;;;;;;;5114831;28;19908;-23
2022/09/28 12:48:53;;;;;;;;;;;;;;;;;;5114754;28;20269;-23
2022/09/28 12:51:19;;;;;;;;;;;;;;;;;;5114580;28;20317;-23
2022/09/28 12:53:45;;;;;;;;;;;;;;;;;;5114551;28;19920;-23
2022/09/28 12:56:11;;;;;;;;;;;;;;;;;;5114616;28;20323;-23
2022/09/28 12:58:37;;;;;;;;;;;;;;;;;;5114240;28;19972;-24
2022/09/28 13:01:03;;;;;;;;;;;;;;;;;;5096400;28;20002;-24
2022/09/28 13:03:29;;;;;;;;;;;;;;;;;;5114676;28;19950;-24
2022/09/28 13:05:55;;;;;;;;;;;;;;;;;;5114751;28;19999;-24
2022/09/28 13:08:22;;;;;;;;;;;;;;;;;;5114471;28;19958;-24
2022/09/28 13:10:48;;;;;;;;;;;;;;;;;;5114808;28;20309;-24
2022/09/28 13:13:14;;;;;;;;;;;;;;;;;;5114622;28;19920;-24
2022/09/28 13:15:40;;;;;;;;;;;;;;;;;;5114475;28;20250;-25
2022/09/28 13:18:06;;;;;;;;;;;;;;;;;;5097252;28;19919;-25
2022/09/28 13:20:34;;;;;;;;;;;;;;;;;;5096535;28;19919;-25
2022/09/28 13:23:01;;;;;;;;;;;;;;;;;;5114562;28;20250;-24
2022/09/28 13:25:27;;;;;;;;;;;;;;;;;;5114624;28;19922;-24
2022/09/28 13:27:53;;;;;;;;;;;;;;;;;;5114446;28;19908;-23
2022/09/28 13:30:19;;;;;;;;;;;;;;;;;;5113979;28;20002;-24
2022/09/28 13:32:45;;;;;;;;;;;;;;;;;;5115140;28;20015;-24
2022/09/28 13:35:11;;;;;;;;;;;;;;;;;;5117814;28;19912;-23
2022/09/28 13:37:37;;;;;;;;;;;;;;;;;;5117504;28;19911;-24
2022/09/28 13:40:05;;;;;;;;;;;;;;;;;;5117497;28;19912;-23
2022/09/28 13:42:31;;;;;;;;;;;;;;;;;;5117787;28;20273;-23
2022/09/28 13:44:58;;;;;;;;;;;;;;;;;;5117654;28;19912;-24
2022/09/28 13:47:25;;;;;;;;;;;;;;;;;;5117645;28;19999;-22
2022/09/28 13:49:51;;;;;;;;;;;;;;;;;;5117493;28;19918;-23
2022/09/28 13:52:17;;;;;;;;;;;;;;;;;;5099661;28;20014;-24
2022/09/28 13:54:44;;;;;;;;;;;;;;;;;;5117526;28;19912;-24
2022/09/28 13:57:10;;;;;;;;;;;;;;;;;;5117643;28;19918;-24
2022/09/28 13:59:37;;;;;;;;;;;;;;;;;;5117383;28;19927;-24
2022/09/28 14:02:03;;;;;;;;;;;;;;;;;;5117250;28;20262;-22
2022/09/28 14:04:29;;;;;;;;;;;;;;;;;;5117894;28;19957;-24
2022/09/28 14:06:57;;;;;;;;;;;;;;;;;;5117366;28;20361;-24
2022/09/28 14:09:23;;;;;;;;;;;;;;;;;;5117117;28;19947;-24
2022/09/28 14:11:50;;;;;;;;;;;;;;;;;;5099143;28;19919;-23
2022/09/28 14:14:16;;;;;;;;;;;;;;;;;;5117090;28;20012;-23
2022/09/28 14:16:42;;;;;;;;;;;;;;;;;;5117317;28;20318;-23
2022/09/28 14:19:08;;;;;;;;;;;;;;;;;;5098853;28;20262;-23
2022/09/28 14:21:34;;;;;;;;;;;;;;;;;;5116658;28;19912;-23
2022/09/28 14:24:00;;;;;;;;;;;;;;;;;;5116836;28;19908;-24
2022/09/28 14:26:26;;;;;;;;;;;;;;;;;;5116769;28;20006;-23
2022/09/28 14:28:53;;;;;;;;;;;;;;;;;;5116578;28;20018;-23
2022/09/28 14:31:19;;;;;;;;;;;;;;;;;;5116604;28;19911;-23
2022/09/28 14:33:45;;;;;;;;;;;;;;;;;;5098407;28;19923;-23
2022/09/28 14:36:11;;;;;;;;;;;;;;;;;;5116839;28;19912;-23
2022/09/28 14:41:22;;;;;;;;;;;;;;;;;;5116575;28;19923;-23
2022/09/28 14:43:48;;;;;;;;;;;;;;;;;;5116394;28;19930;-23
2022/09/28 14:46:17;;;;;;;;;;;;;;;;;;5116525;28;19915;-23
2022/09/28 14:48:43;;;;;;;;;;;;;;;;;;5116091;28;19954;-24
2022/09/28 14:51:09;;;;;;;;;;;;;;;;;;5116647;28;19911;-24
2022/09/28 14:53:35;;;;;;;;;;;;;;;;;;5116021;28;20329;-30
2022/09/28 14:56:01;;;;;;;;;;;;;;;;;;5116418;28;19936;-24
2022/09/28 14:58:28;;;;;;;;;;;;;;;;;;5115890;28;19922;-23
2022/09/28 15:00:54;;;;;;;;;;;;;;;;;;5116267;28;19915;-24
2022/09/28 15:03:20;;;;;;;;;;;;;;;;;;5116236;28;19939;-23
2022/09/28 15:05:46;;;;;;;;;;;;;;;;;;5115590;28;20350;-23
2022/09/28 15:08:13;;;;;;;;;;;;;;;;;;5115593;28;19911;-23
2022/09/28 15:10:40;;;;;;;;;;;;;;;;;;5115667;28;20356;-24
2022/09/28 15:13:07;;;;;;;;;;;;;;;;;;5115958;28;19981;-23
2022/09/28 15:15:33;;;;;;;;;;;;;;;;;;5115433;28;19912;-24
2022/09/28 15:17:59;;;;;;;;;;;;;;;;;;5115267;28;19911;-24
2022/09/28 15:20:25;;;;;;;;;;;;;;;;;;5115414;28;19926;-24
2022/09/28 15:22:51;;;;;;;;;;;;;;;;;;5115387;28;19972;-24
2022/09/28 15:25:18;;;;;;;;;;;;;;;;;;5115078;28;19919;-24
2022/09/28 15:27:46;;;;;;;;;;;;;;;;;;5114882;28;20298;-24
2022/09/28 15:30:12;;;;;;;;;;;;;;;;;;5115212;28;20278;-23
2022/09/28 15:32:38;;;;;;;;;;;;;;;;;;5096698;28;20266;-24
2022/09/28 15:35:04;;;;;;;;;;;;;;;;;;5114896;28;19912;-23
2022/09/28 15:37:31;;;;;;;;;;;;;;;;;;5115086;28;19912;-24
2022/09/28 15:39:57;;;;;;;;;;;;;;;;;;5097260;28;19972;-24
2022/09/28 15:42:23;;;;;;;;;;;;;;;;;;5115694;28;19944;-24
2022/09/28 15:44:49;;;;;;;;;;;;;;;;;;5115494;28;19919;-23
2022/09/28 15:47:15;;;;;;;;;;;;;;;;;;5115261;28;20398;-24
2022/09/28 15:49:41;;;;;;;;;;;;;;;;;;5115475;28;20002;-24
2022/09/28 15:52:07;;;;;;;;;;;;;;;;;;5115505;28;20264;-24
2022/09/28 15:54:33;;;;;;;;;;;;;;;;;;5115490;28;19918;-23
2022/09/28 15:57:01;;;;;;;;;;;;;;;;;;5114307;28;19915;-23
2022/09/28 15:59:27;;;;;;;;;;;;;;;;;;5115217;28;19916;-23
2022/09/28 16:01:53;;;;;;;;;;;;;;;;;;5114743;28;19935;-23
2022/09/28 16:04:19;;;;;;;;;;;;;;;;;;5115124;28;20338;-24
2022/09/28 16:06:45;;;;;;;;;;;;;;;;;;5114661;28;20366;-23
2022/09/28 16:09:11;;;;;;;;;;;;;;;;;;5096257;28;20007;-23
2022/09/28 16:11:37;;;;;;;;;;;;;;;;;;5114519;28;19911;-23
2022/09/28 16:14:07;;;;;;;;;;;;;;;;;;5114762;28;20254;-23
2022/09/28 16:16:34;;;;;;;;;;;;;;;;;;5114927;28;20353;-23
2022/09/28 16:24:42;;;;;;;;;;;;;;;;;;5122341;28;19923;-24
2022/09/28 16:32:43;;;;;;;;;;;;;;;;;;5118452;28;19926;-23
2022/09/28 16:35:10;;;;;;;;;;;;;;;;;;5102403;28;19938;-23
2022/09/28 16:37:47;;;;;;;;;;;;;;;;;;5118509;28;19914;-24
2022/09/28 16:40:15;;;;;;;;;;;;;;;;;;5119097;28;20253;-24
2022/09/28 16:45:27;;;;;;;;;;;;;;;;;;5119229;28;19962;-25
2022/09/28 16:50:39;;;;;;;;;;;;;;;;;;5118428;28;19968;-24
2022/09/28 16:55:51;;;;;;;;;;;;;;;;;;5117818;28;20365;-23
2022/09/28 16:58:19;;;;;;;;;;;;;;;;;;5117855;28;19916;-23
2022/09/28 17:00:48;;;;;;;;;;;;;;;;;;5102692;28;20398;-24
2022/09/28 17:03:17;;;;;;;;;;;;;;;;;;5122117;28;19926;-23
2022/09/28 17:05:49;;;;;;;;;;;;;;;;;;5121752;28;20385;-23
2022/09/28 17:08:16;;;;;;;;;;;;;;;;;;5119554;28;20313;-23
2022/09/28 17:10:45;;;;;;;;;;;;;;;;;;5102916;28;19935;-23
2022/09/28 17:13:14;;;;;;;;;;;;;;;;;;5103408;28;19928;-23
2022/09/28 17:15:41;;;;;;;;;;;;;;;;;;5121397;28;19947;-23
2022/09/28 17:18:11;;;;;;;;;;;;;;;;;;5121860;28;19908;-23
2022/09/28 17:20:38;;;;;;;;;;;;;;;;;;5121330;28;19946;-24
2022/09/28 17:23:08;;;;;;;;;;;;;;;;;;5103600;28;19916;-23
2022/09/28 17:25:37;;;;;;;;;;;;;;;;;;5122644;28;19919;-23
2022/09/28 17:28:06;;;;;;;;;;;;;;;;;;5122132;28;19918;-24
2022/09/28 17:30:35;;;;;;;;;;;;;;;;;;5122245;28;19919;-24
2022/09/28 17:33:02;;;;;;;;;;;;;;;;;;5102728;28;20232;-24
2022/09/28 17:35:29;;;;;;;;;;;;;;;;;;5120498;28;19919;-24
2022/09/28 17:37:56;;;;;;;;;;;;;;;;;;5102300;28;19911;-24
2022/09/28 17:40:24;;;;;;;;;;;;;;;;;;5121289;28;19908;-24
2022/09/28 17:42:55;;;;;;;;;;;;;;;;;;5120467;28;19954;-24
2022/09/28 17:45:24;;;;;;;;;;;;;;;;;;5101702;28;20094;-23
2022/09/28 17:47:52;;;;;;;;;;;;;;;;;;5119841;28;19912;-23
2022/09/28 17:50:20;;;;;;;;;;;;;;;;;;5120353;28;19923;-23
2022/09/28 17:52:50;;;;;;;;;;;;;;;;;;5120348;28;19916;-23
2022/09/28 17:55:18;;;;;;;;;;;;;;;;;;5119683;28;19912;-23